New Orleans, Louisiana
Traffic Map
Current Weather Conditions
New Orleans, Louisiana
Clear
Clear
80°
Feels Like: 85°
Wind Chill: 80° Ceiling: Unl
Heat Index: 85° Visibility: 9mi
Dew Point: 75° Wind: 3mph
Humidity: 85% Direction: 140° (SE)
Pressure: 29.97in Gusts: 0mph
Raw Report DataKNEW 251153Z AUTO 14003KT 9SM CLR 27/24 A2997 RMK AO2 SLP143 T02670239 10278 20267 53012
Traffic Incident Summary
Active as of:
Severity:
Category:
InformationThere was an issue retrieving the traffic information for this location. Please try a different location or try again shortly.
Advertisements
Track Severe Weather on mobile